createdAt,value
2022-08-04T00:00:45.966Z,61.09
2022-08-04T00:03:28.054Z,61.06
2022-08-04T00:06:04.524Z,61.20
2022-08-04T00:08:49.511Z,61.26
2022-08-04T00:11:21.604Z,61.21
2022-08-04T00:14:03.617Z,61.33
2022-08-04T00:16:38.568Z,61.39
2022-08-04T00:19:21.826Z,61.30
2022-08-04T00:21:52.673Z,61.32
2022-08-04T00:24:20.133Z,61.40
2022-08-04T00:26:47.590Z,61.42
2022-08-04T00:29:14.740Z,61.58
2022-08-04T00:31:56.443Z,61.59
2022-08-04T00:34:26.351Z,61.70
2022-08-04T00:36:54.530Z,61.77
2022-08-04T00:39:22.327Z,61.64
2022-08-04T00:42:13.720Z,61.65
2022-08-04T00:44:40.561Z,61.64
2022-08-04T00:47:29.549Z,61.83
2022-08-04T00:50:36.406Z,61.96
2022-08-04T00:53:07.653Z,61.95
2022-08-04T00:56:12.384Z,61.96
2022-08-04T00:59:27.870Z,62.10
2022-08-04T01:02:22.673Z,62.09
2022-08-04T01:04:50.983Z,62.18
2022-08-04T01:07:48.859Z,62.16
2022-08-04T01:10:40.969Z,62.23
2022-08-04T01:13:22.358Z,62.36
2022-08-04T01:15:59.357Z,62.37
2022-08-04T01:18:52.422Z,62.43
2022-08-04T01:21:34.919Z,62.52
2022-08-04T01:24:31.662Z,62.46
2022-08-04T01:27:43.560Z,62.52
2022-08-04T01:30:10.512Z,62.57
2022-08-04T01:32:39.075Z,62.56
2022-08-04T01:35:09.867Z,62.41
2022-08-04T01:38:01.762Z,62.51
2022-08-04T01:40:45.507Z,62.51
2022-08-04T01:43:14.400Z,62.57
2022-08-04T01:45:41.865Z,62.68
2022-08-04T01:48:09.535Z,62.59
2022-08-04T01:50:37.294Z,62.42
2022-08-04T01:53:04.548Z,62.53
2022-08-04T01:55:54.252Z,62.71
2022-08-04T01:58:19.941Z,62.76
2022-08-04T02:01:08.866Z,62.97
2022-08-04T02:04:21.080Z,63.00
2022-08-04T02:06:41.001Z,63.00
2022-08-04T02:09:21.468Z,63.00
2022-08-04T02:11:59.063Z,62.91
2022-08-04T02:14:43.111Z,62.85
2022-08-04T02:17:15.107Z,62.67
2022-08-04T02:20:02.812Z,62.60
2022-08-04T02:22:30.470Z,62.65
2022-08-04T02:25:09.098Z,62.64
2022-08-04T02:27:59.765Z,62.65
2022-08-04T02:30:56.956Z,62.76
2022-08-04T02:33:27.688Z,63.06
2022-08-04T02:35:57.666Z,62.81
2022-08-04T02:38:55.425Z,62.77
2022-08-04T02:41:25.201Z,62.96
2022-08-04T02:43:52.899Z,63.23
2022-08-04T02:46:20.877Z,63.21
2022-08-04T02:48:48.983Z,63.37
2022-08-04T02:51:17.181Z,63.22
2022-08-04T02:53:44.331Z,63.24
2022-08-04T02:56:11.279Z,62.99
2022-08-04T02:58:38.169Z,63.24
2022-08-04T03:01:05.255Z,63.47
2022-08-04T03:03:40.580Z,63.54
2022-08-04T03:06:11.584Z,63.37
2022-08-04T03:09:23.482Z,63.48
2022-08-04T03:12:14.700Z,63.63
2022-08-04T03:15:00.494Z,63.63
2022-08-04T03:17:53.633Z,63.52
2022-08-04T03:20:45.632Z,63.66
2022-08-04T03:23:45.422Z,63.62
2022-08-04T03:26:34.279Z,63.67
2022-08-04T03:29:11.272Z,63.79
2022-08-04T03:32:09.138Z,63.71
2022-08-04T03:35:13.683Z,63.90
2022-08-04T03:38:08.778Z,64.01
2022-08-04T03:40:50.581Z,63.86
2022-08-04T03:43:57.083Z,63.99
2022-08-04T03:46:17.349Z,64.09
2022-08-04T03:49:21.598Z,64.02
2022-08-04T03:52:26.093Z,64.03
2022-08-04T03:55:11.781Z,64.31
2022-08-04T03:57:48.596Z,64.51
2022-08-04T04:00:19.435Z,64.58
2022-08-04T04:03:08.367Z,64.45
2022-08-04T04:05:43.151Z,64.26
2022-08-04T04:08:40.664Z,64.44
2022-08-04T04:11:55.449Z,64.84
2022-08-04T04:14:50.350Z,64.62
2022-08-04T04:17:45.249Z,64.78
2022-08-04T04:20:31.036Z,64.72
2022-08-04T04:23:23.170Z,64.74
2022-08-04T04:26:02.405Z,64.72
2022-08-04T04:28:46.089Z,64.73
2022-08-04T04:31:33.788Z,64.77
2022-08-04T04:34:45.996Z,64.55
2022-08-04T04:37:18.822Z,64.62
2022-08-04T04:40:03.254Z,64.78
2022-08-04T04:42:30.690Z,64.63
2022-08-04T04:45:28.764Z,64.72
2022-08-04T04:48:08.911Z,64.67
2022-08-04T04:51:18.270Z,64.80
2022-08-04T04:54:09.391Z,64.51
2022-08-04T04:56:36.339Z,64.36
2022-08-04T04:59:04.229Z,64.41
2022-08-04T05:02:01.566Z,64.42
2022-08-04T05:04:54.931Z,64.47
2022-08-04T05:07:28.151Z,64.29
2022-08-04T05:10:12.584Z,64.31
2022-08-04T05:14:31.845Z,64.17
2022-08-04T05:15:32.588Z,64.31
2022-08-04T05:17:59.588Z,64.30
2022-08-04T05:20:35.939Z,64.17
2022-08-04T05:23:16.870Z,63.86
2022-08-04T05:25:58.785Z,63.88
2022-08-04T05:28:45.571Z,63.68
2022-08-04T05:31:14.456Z,63.58
2022-08-04T05:33:46.434Z,63.52
2022-08-04T05:36:29.432Z,63.61
2022-08-04T05:39:04.353Z,63.60
2022-08-04T05:41:32.406Z,63.42
2022-08-04T05:44:12.107Z,63.31
2022-08-04T05:46:39.156Z,63.25
2022-08-04T05:49:07.082Z,63.13
2022-08-04T05:51:34.791Z,63.11
2022-08-04T05:54:01.843Z,63.11
2022-08-04T05:56:29.404Z,63.22
2022-08-04T05:58:56.400Z,63.28
2022-08-04T06:01:24.162Z,63.40
2022-08-04T06:03:51.772Z,63.52
2022-08-04T06:06:18.921Z,63.32
2022-08-04T06:08:45.865Z,63.11
2022-08-04T06:11:12.808Z,62.99
2022-08-04T06:13:52.715Z,62.79
2022-08-04T06:16:28.729Z,62.52
2022-08-04T06:20:00.492Z,62.51
2022-08-04T06:21:49.431Z,62.51
2022-08-04T06:24:21.233Z,62.54
2022-08-04T06:26:48.547Z,62.60
2022-08-04T06:29:25.116Z,62.67
2022-08-04T06:32:29.912Z,62.69
2022-08-04T06:34:46.561Z,62.74
2022-08-04T06:37:41.013Z,62.67
2022-08-04T06:40:01.224Z,62.48
2022-08-04T06:42:28.581Z,62.51
2022-08-04T06:44:58.655Z,62.55
2022-08-04T06:47:25.650Z,62.54
2022-08-04T06:51:24.665Z,62.54
2022-08-04T06:52:40.433Z,62.48
2022-08-04T06:55:08.973Z,62.47
2022-08-04T06:57:35.960Z,62.52
2022-08-04T07:00:09.291Z,62.50
2022-08-04T07:02:40.095Z,62.48
2022-08-04T07:05:08.139Z,62.51
2022-08-04T07:07:37.178Z,62.50
2022-08-04T07:10:23.976Z,62.59
2022-08-04T07:12:51.130Z,62.70
2022-08-04T07:15:21.051Z,62.49
2022-08-04T07:17:49.703Z,62.32
2022-08-04T07:20:34.891Z,62.40
2022-08-04T07:23:06.861Z,62.29
2022-08-04T07:26:00.279Z,62.31
2022-08-04T07:28:26.092Z,62.25
2022-08-04T07:30:54.373Z,62.33
2022-08-04T07:33:22.098Z,62.28
2022-08-04T07:36:05.175Z,62.36
2022-08-04T07:38:37.586Z,62.62
2022-08-04T07:44:00.173Z,61.97
2022-08-04T07:46:27.625Z,61.67
2022-08-04T07:49:01.310Z,61.80
2022-08-04T07:51:31.788Z,61.01
2022-08-04T07:53:59.013Z,60.46
2022-08-04T07:56:26.988Z,60.51
2022-08-04T07:58:55.463Z,60.48
2022-08-04T08:01:23.714Z,60.50
2022-08-04T08:03:51.707Z,60.45
2022-08-04T08:06:32.746Z,59.87
2022-08-04T08:09:12.213Z,59.64
2022-08-04T08:12:37.063Z,59.42
2022-08-04T08:14:27.161Z,59.67
2022-08-04T08:16:54.168Z,59.62
2022-08-04T08:19:21.119Z,59.31
2022-08-04T08:21:58.843Z,59.89
2022-08-04T08:24:26.898Z,59.79
2022-08-04T08:26:53.877Z,59.28
2022-08-04T08:29:20.788Z,58.98
2022-08-04T08:31:57.194Z,59.00
2022-08-04T08:34:30.050Z,58.83
2022-08-04T08:37:05.705Z,58.72
2022-08-04T08:39:41.415Z,58.71
2022-08-04T08:42:32.270Z,58.97
2022-08-04T08:45:29.733Z,58.96
2022-08-04T08:48:07.947Z,58.42
2022-08-04T08:51:06.546Z,58.55
2022-08-04T08:53:37.233Z,58.38
2022-08-04T08:56:13.445Z,56.88
2022-08-04T08:59:18.798Z,57.20
2022-08-04T09:01:52.390Z,56.54
2022-08-04T09:04:35.640Z,55.95
2022-08-04T09:07:22.129Z,55.98
2022-08-04T09:09:49.918Z,55.73
2022-08-04T09:12:26.298Z,56.09
2022-08-04T09:14:59.080Z,55.92
2022-08-04T09:17:56.134Z,55.26
2022-08-04T09:20:39.438Z,55.07
2022-08-04T09:23:09.178Z,55.27
2022-08-04T09:25:43.274Z,55.74
2022-08-04T09:28:52.884Z,55.26
2022-08-04T09:31:22.985Z,55.47
2022-08-04T09:34:11.020Z,55.59
2022-08-04T09:36:43.387Z,53.78
2022-08-04T09:39:28.840Z,54.22
2022-08-04T09:42:04.487Z,54.62
2022-08-04T09:45:05.612Z,54.38
2022-08-04T09:47:54.842Z,53.17
2022-08-04T09:50:44.810Z,52.78
2022-08-04T09:53:27.032Z,52.31
2022-08-04T09:56:03.789Z,53.05
2022-08-04T09:58:58.817Z,52.32
2022-08-04T10:01:26.476Z,51.98
2022-08-04T10:03:56.949Z,51.64
2022-08-04T10:06:41.058Z,51.46
2022-08-04T10:09:42.205Z,50.10
2022-08-04T10:12:29.738Z,50.67
2022-08-04T10:15:03.093Z,50.20
2022-08-04T10:17:57.425Z,49.41
2022-08-04T10:20:59.105Z,49.86
2022-08-04T10:24:00.586Z,50.21
2022-08-04T10:26:35.884Z,50.13
2022-08-04T10:29:05.704Z,49.67
2022-08-04T10:31:38.995Z,49.18
2022-08-04T10:34:12.082Z,49.25
2022-08-04T10:36:45.434Z,48.85
2022-08-04T10:39:42.118Z,48.18
2022-08-04T10:42:17.326Z,49.10
2022-08-04T10:45:15.843Z,48.54
2022-08-04T10:47:53.447Z,49.16
2022-08-04T10:50:21.675Z,49.86
2022-08-04T10:53:02.481Z,48.72
2022-08-04T10:56:06.633Z,48.94
2022-08-04T10:58:47.782Z,48.14
2022-08-04T11:02:02.009Z,46.55
2022-08-04T11:04:30.828Z,47.21
2022-08-04T11:06:59.039Z,46.78
2022-08-04T11:09:26.052Z,46.67
2022-08-04T11:12:23.821Z,46.52
2022-08-04T11:14:54.579Z,46.37
2022-08-04T11:17:29.147Z,46.42
2022-08-04T11:20:36.789Z,45.97
2022-08-04T11:23:09.766Z,45.79
2022-08-04T11:25:55.865Z,44.93
2022-08-04T11:28:30.646Z,45.06
2022-08-04T11:31:04.292Z,43.18
2022-08-04T11:34:05.257Z,43.71
2022-08-04T11:36:37.109Z,42.39
2022-08-04T11:39:25.000Z,42.46
2022-08-04T11:41:54.046Z,42.93
2022-08-04T11:44:51.711Z,43.80
2022-08-04T11:47:24.869Z,43.05
2022-08-04T11:50:17.920Z,42.96
2022-08-04T11:52:45.110Z,42.70
2022-08-04T11:55:14.304Z,42.61
2022-08-04T11:57:42.317Z,42.03
2022-08-04T12:00:12.717Z,41.76
2022-08-04T12:02:49.730Z,40.65
2022-08-04T12:05:35.589Z,40.29
2022-08-04T12:08:08.130Z,41.33
2022-08-04T12:10:54.445Z,39.41
2022-08-04T12:13:28.967Z,39.69
2022-08-04T12:16:03.903Z,40.07
2022-08-04T12:18:40.415Z,39.23
2022-08-04T12:21:42.703Z,41.43
2022-08-04T12:24:19.260Z,42.04
2022-08-04T12:27:12.665Z,42.66
2022-08-04T12:29:40.781Z,42.49
2022-08-04T12:32:13.027Z,42.14
2022-08-04T12:34:43.263Z,41.94
2022-08-04T12:37:23.940Z,41.44
2022-08-04T12:40:27.486Z,41.58
2022-08-04T12:42:56.443Z,41.32
2022-08-04T12:45:26.732Z,41.63
2022-08-04T12:47:54.873Z,41.80
2022-08-04T12:50:22.474Z,41.98
2022-08-04T12:53:03.449Z,41.65
2022-08-04T12:55:32.113Z,42.48
2022-08-04T12:57:59.686Z,41.77
2022-08-04T13:00:32.125Z,41.85
2022-08-04T13:03:12.787Z,42.41
2022-08-04T13:05:40.952Z,42.26
2022-08-04T13:08:08.459Z,42.58
2022-08-04T13:10:43.387Z,42.26
2022-08-04T13:13:16.837Z,42.65
2022-08-04T13:15:47.336Z,43.03
2022-08-04T13:18:28.943Z,43.61
2022-08-04T13:20:58.218Z,43.72
2022-08-04T13:23:26.938Z,44.12
2022-08-04T13:26:44.666Z,44.34
2022-08-04T13:28:43.687Z,45.01
2022-08-04T13:31:16.767Z,45.54
2022-08-04T13:33:45.968Z,46.77
2022-08-04T13:36:14.601Z,47.83
2022-08-04T13:38:50.494Z,48.95
2022-08-04T13:41:17.820Z,49.78
2022-08-04T13:43:48.472Z,50.54
2022-08-04T13:46:38.339Z,51.33
2022-08-04T13:49:30.977Z,52.35
2022-08-04T13:51:59.076Z,53.00
2022-08-04T13:54:55.613Z,53.70
2022-08-04T13:57:24.319Z,54.41
2022-08-04T13:59:56.813Z,54.75
2022-08-04T14:02:26.894Z,55.11
2022-08-04T14:04:57.348Z,55.63
2022-08-04T14:07:25.802Z,55.83
2022-08-04T14:10:02.655Z,55.91
2022-08-04T14:12:38.563Z,56.42
2022-08-04T14:16:01.373Z,57.06
2022-08-04T14:18:25.535Z,56.44
2022-08-04T14:21:02.481Z,56.54
2022-08-04T14:23:31.848Z,56.39
2022-08-04T14:26:00.634Z,55.73
2022-08-04T14:29:27.844Z,55.28
2022-08-04T14:31:20.618Z,55.14
2022-08-04T14:34:01.432Z,55.11
2022-08-04T14:37:16.250Z,54.68
2022-08-04T14:39:39.402Z,54.87
2022-08-04T14:42:07.409Z,54.70
2022-08-04T14:44:55.049Z,54.23
2022-08-04T14:47:52.717Z,54.33
2022-08-04T14:50:20.596Z,54.56
2022-08-04T14:52:47.827Z,54.51
2022-08-04T14:55:20.525Z,54.23
2022-08-04T14:58:35.053Z,53.69
2022-08-04T15:00:35.895Z,53.66
2022-08-04T15:03:10.965Z,53.77
2022-08-04T15:06:36.589Z,53.89
2022-08-04T15:09:09.619Z,53.83
2022-08-04T15:11:41.489Z,53.51
2022-08-04T15:14:35.949Z,53.13
2022-08-04T15:16:57.463Z,53.09
2022-08-04T15:19:25.315Z,53.30
2022-08-04T15:21:52.288Z,53.10
2022-08-04T15:24:19.236Z,53.07
2022-08-04T15:26:50.691Z,52.82
2022-08-04T15:30:00.291Z,52.77
2022-08-04T15:32:19.642Z,52.56
2022-08-04T15:34:51.269Z,52.33
2022-08-04T15:37:38.496Z,52.28
2022-08-04T15:41:01.976Z,52.17
2022-08-04T15:43:41.106Z,51.62
2022-08-04T15:46:42.725Z,51.38
2022-08-04T15:48:54.890Z,51.59
2022-08-04T15:51:32.233Z,51.73
2022-08-04T15:54:03.713Z,51.75
2022-08-04T15:56:35.990Z,51.45
2022-08-04T15:59:02.940Z,51.18
2022-08-04T16:01:29.829Z,51.00
2022-08-04T16:03:59.852Z,51.15
2022-08-04T16:06:29.525Z,51.20
2022-08-04T16:09:04.580Z,51.24
2022-08-04T16:11:37.326Z,51.46
2022-08-04T16:14:04.905Z,51.31
2022-08-04T16:16:38.710Z,51.52
2022-08-04T16:19:35.385Z,51.49
2022-08-04T16:22:03.330Z,51.70
2022-08-04T16:24:30.892Z,51.93
2022-08-04T16:27:01.802Z,52.02
2022-08-04T16:29:38.257Z,52.25
2022-08-04T16:32:13.263Z,52.37
2022-08-04T16:34:55.548Z,52.30
2022-08-04T16:37:43.103Z,52.31
2022-08-04T16:40:38.570Z,52.16
2022-08-04T16:43:14.683Z,52.13
2022-08-04T16:45:42.475Z,52.46
2022-08-04T16:48:10.653Z,52.70
2022-08-04T16:50:57.852Z,52.74
2022-08-04T16:54:03.742Z,52.93
2022-08-04T16:56:34.435Z,53.08
2022-08-04T16:59:12.565Z,52.97
2022-08-04T17:01:50.557Z,53.09
2022-08-04T17:04:18.955Z,53.07
2022-08-04T17:06:49.652Z,53.26
2022-08-04T17:09:17.903Z,53.23
2022-08-04T17:11:45.740Z,53.22
2022-08-04T17:14:13.407Z,53.27
2022-08-04T17:16:42.621Z,53.36
2022-08-04T17:19:25.094Z,53.64
2022-08-04T17:22:04.292Z,53.65
2022-08-04T17:24:38.241Z,53.57
2022-08-04T17:28:10.501Z,53.57
2022-08-04T17:29:54.394Z,53.65
2022-08-04T17:32:23.057Z,53.61
2022-08-04T17:34:51.679Z,53.55
2022-08-04T17:37:39.314Z,53.61
2022-08-04T17:40:10.354Z,53.79
2022-08-04T17:42:39.868Z,53.82
2022-08-04T17:47:59.562Z,54.24
2022-08-04T17:54:01.472Z,54.46
2022-08-04T17:56:31.782Z,54.52
2022-08-04T17:59:55.737Z,54.63
2022-08-04T18:02:32.583Z,54.89
2022-08-04T18:05:07.581Z,54.94
2022-08-04T18:08:38.676Z,55.15
2022-08-04T18:10:52.328Z,55.24
2022-08-04T18:13:27.404Z,55.22
2022-08-04T18:16:04.972Z,55.06
2022-08-04T18:18:32.208Z,55.23
2022-08-04T18:23:50.729Z,55.58
2022-08-04T18:26:18.623Z,55.47
2022-08-04T18:28:50.993Z,55.54
2022-08-04T18:31:17.937Z,55.62
2022-08-04T18:33:56.955Z,55.65
2022-08-04T18:36:32.796Z,55.66
2022-08-04T18:39:12.720Z,55.77
2022-08-04T18:42:02.978Z,55.80
2022-08-04T18:44:29.517Z,55.93
2022-08-04T18:47:19.467Z,56.00
2022-08-04T18:51:00.347Z,56.07
2022-08-04T18:52:33.461Z,56.21
2022-08-04T18:55:01.842Z,56.28
2022-08-04T18:57:59.430Z,56.41
2022-08-04T19:00:19.791Z,56.41
2022-08-04T19:02:47.686Z,56.45
2022-08-04T19:05:17.503Z,56.67
2022-08-04T19:08:01.665Z,56.93
2022-08-04T19:10:32.490Z,57.02
2022-08-04T19:13:02.305Z,57.18
2022-08-04T19:15:34.564Z,57.34
2022-08-04T19:18:02.570Z,57.28
2022-08-04T19:20:34.221Z,57.23
2022-08-04T19:24:29.421Z,57.27
2022-08-04T19:25:58.834Z,57.49
2022-08-04T19:28:34.095Z,57.41
2022-08-04T19:31:03.595Z,57.39
2022-08-04T19:33:58.991Z,57.38
2022-08-04T19:36:17.615Z,57.66
2022-08-04T19:38:44.821Z,58.04
2022-08-04T19:41:14.381Z,58.08
2022-08-04T19:43:43.787Z,58.17
2022-08-04T19:46:12.058Z,58.06
2022-08-04T19:48:40.908Z,57.97
2022-08-04T19:51:09.504Z,58.04
2022-08-04T19:53:37.549Z,58.09
2022-08-04T19:56:10.192Z,58.04
2022-08-04T19:58:38.747Z,58.17
2022-08-04T20:01:31.528Z,58.02
2022-08-04T20:04:09.218Z,58.03
2022-08-04T20:06:37.582Z,58.19
2022-08-04T20:09:04.635Z,58.29
2022-08-04T20:11:51.456Z,58.04
2022-08-04T20:14:31.336Z,57.93
2022-08-04T20:17:02.043Z,57.87
2022-08-04T20:19:30.335Z,57.94
2022-08-04T20:21:58.489Z,58.17
2022-08-04T20:24:38.265Z,58.25
2022-08-04T20:27:15.066Z,58.12
2022-08-04T20:29:49.643Z,58.11
2022-08-04T20:32:22.461Z,58.11
2022-08-04T20:34:51.411Z,58.13
2022-08-04T20:37:20.603Z,58.14
2022-08-04T20:39:54.473Z,58.32
2022-08-04T20:42:27.363Z,58.37
2022-08-04T20:45:01.344Z,58.42
2022-08-04T20:50:16.510Z,58.40
2022-08-04T20:52:44.584Z,58.56
2022-08-04T20:55:11.633Z,58.64
2022-08-04T20:57:47.956Z,58.58
2022-08-04T21:00:29.976Z,58.64
2022-08-04T21:02:58.998Z,58.76
2022-08-04T21:05:26.577Z,58.74
2022-08-04T21:07:57.191Z,58.87
2022-08-04T21:10:25.778Z,58.87
2022-08-04T21:12:53.747Z,58.68
2022-08-04T21:15:25.083Z,58.70
2022-08-04T21:17:59.382Z,58.78
2022-08-04T21:20:32.437Z,58.61
2022-08-04T21:23:01.932Z,58.82
2022-08-04T21:25:31.406Z,58.99
2022-08-04T21:28:04.041Z,58.96
2022-08-04T21:30:36.979Z,58.94
2022-08-04T21:33:18.982Z,58.90
2022-08-04T21:35:47.295Z,58.91
2022-08-04T21:38:17.636Z,59.05
2022-08-04T21:40:55.703Z,59.10
2022-08-04T21:43:27.251Z,58.89
2022-08-04T21:45:55.078Z,58.95
2022-08-04T21:52:00.579Z,59.14
2022-08-04T21:54:09.327Z,59.14
2022-08-04T21:56:36.377Z,59.13
2022-08-04T21:59:10.977Z,59.23
2022-08-04T22:01:52.366Z,59.25
2022-08-04T22:04:22.314Z,59.25
2022-08-04T22:06:52.452Z,59.17
2022-08-04T22:09:21.834Z,59.24
2022-08-04T22:11:50.851Z,59.23
2022-08-04T22:14:27.655Z,59.20
2022-08-04T22:17:01.951Z,59.36
2022-08-04T22:19:50.286Z,59.32
2022-08-04T22:22:25.124Z,59.42
2022-08-04T22:24:55.171Z,59.51
2022-08-04T22:28:00.878Z,59.74
2022-08-04T22:30:33.232Z,59.75
2022-08-04T22:33:05.028Z,59.86
2022-08-04T22:35:44.371Z,59.81
2022-08-04T22:38:31.683Z,59.94
2022-08-04T22:41:08.802Z,60.06
2022-08-04T22:43:37.628Z,59.97
2022-08-04T22:46:11.949Z,59.96
2022-08-04T22:48:43.510Z,59.91
2022-08-04T22:51:12.887Z,60.08
2022-08-04T22:53:40.307Z,60.12
2022-08-04T22:56:10.493Z,60.18
2022-08-04T22:58:51.097Z,60.13
2022-08-04T23:01:19.442Z,60.25
2022-08-04T23:03:50.936Z,60.41
2022-08-04T23:06:24.704Z,60.32
2022-08-04T23:08:52.120Z,60.31
2022-08-04T23:11:19.036Z,60.51
2022-08-04T23:13:47.229Z,60.47
2022-08-04T23:16:17.812Z,60.43
2022-08-04T23:18:48.193Z,60.50
2022-08-04T23:21:16.543Z,60.51
2022-08-04T23:23:55.201Z,60.57
2022-08-04T23:26:28.878Z,60.53
2022-08-04T23:28:56.515Z,60.40
2022-08-04T23:31:24.314Z,60.51
2022-08-04T23:33:52.512Z,60.39
2022-08-04T23:36:29.340Z,60.54
2022-08-04T23:39:00.674Z,60.75
2022-08-04T23:41:55.323Z,60.73
2022-08-04T23:44:17.472Z,60.68
2022-08-04T23:46:53.335Z,60.73
2022-08-04T23:49:20.969Z,60.82
2022-08-04T23:51:49.651Z,60.93
2022-08-04T23:54:16.927Z,60.97
2022-08-04T23:56:52.781Z,60.97
2022-08-04T23:59:52.234Z,60.92
